sensor_id;sensor_type;location;lat;lon;timestamp;P1;durP1;ratioP1;P2;durP2;ratioP2
9675;SDS011;4876;42.656;23.292;2023-01-01T00:01:07;66.13;;;38.83;;
9675;SDS011;4876;42.656;23.292;2023-01-01T00:03:35;57.80;;;39.67;;
9675;SDS011;4876;42.656;23.292;2023-01-01T00:06:04;62.70;;;40.70;;
9675;SDS011;4876;42.656;23.292;2023-01-01T00:08:33;67.93;;;40.27;;
9675;SDS011;4876;42.656;23.292;2023-01-01T00:11:00;64.70;;;40.73;;
9675;SDS011;4876;42.656;23.292;2023-01-01T00:13:26;63.93;;;38.00;;
9675;SDS011;4876;42.656;23.292;2023-01-01T00:15:53;62.70;;;39.67;;
9675;SDS011;4876;42.656;23.292;2023-01-01T00:18:20;62.83;;;38.20;;
9675;SDS011;4876;42.656;23.292;2023-01-01T00:20:46;89.07;;;53.43;;
9675;SDS011;4876;42.656;23.292;2023-01-01T00:23:13;69.10;;;41.67;;
9675;SDS011;4876;42.656;23.292;2023-01-01T00:25:41;66.70;;;39.73;;
9675;SDS011;4876;42.656;23.292;2023-01-01T00:28:08;89.00;;;51.10;;
9675;SDS011;4876;42.656;23.292;2023-01-01T00:30:37;77.37;;;44.27;;
9675;SDS011;4876;42.656;23.292;2023-01-01T00:33:05;84.47;;;50.20;;
9675;SDS011;4876;42.656;23.292;2023-01-01T00:35:32;151.53;;;90.30;;
9675;SDS011;4876;42.656;23.292;2023-01-01T00:37:59;176.83;;;104.13;;
9675;SDS011;4876;42.656;23.292;2023-01-01T00:40:25;204.57;;;125.17;;
9675;SDS011;4876;42.656;23.292;2023-01-01T00:42:53;197.03;;;118.27;;
9675;SDS011;4876;42.656;23.292;2023-01-01T00:45:20;152.13;;;90.37;;
9675;SDS011;4876;42.656;23.292;2023-01-01T00:47:47;145.03;;;85.27;;
9675;SDS011;4876;42.656;23.292;2023-01-01T00:50:14;195.37;;;117.60;;
9675;SDS011;4876;42.656;23.292;2023-01-01T00:52:41;244.80;;;148.13;;
9675;SDS011;4876;42.656;23.292;2023-01-01T00:55:08;309.80;;;190.57;;
9675;SDS011;4876;42.656;23.292;2023-01-01T00:57:35;181.37;;;106.43;;
9675;SDS011;4876;42.656;23.292;2023-01-01T01:00:04;266.27;;;153.20;;
9675;SDS011;4876;42.656;23.292;2023-01-01T01:02:32;232.10;;;140.97;;
9675;SDS011;4876;42.656;23.292;2023-01-01T01:04:59;234.83;;;142.10;;
9675;SDS011;4876;42.656;23.292;2023-01-01T01:07:28;205.57;;;126.77;;
9675;SDS011;4876;42.656;23.292;2023-01-01T01:09:59;200.67;;;117.63;;
9675;SDS011;4876;42.656;23.292;2023-01-01T01:12:25;182.50;;;115.33;;
9675;SDS011;4876;42.656;23.292;2023-01-01T01:14:52;203.70;;;124.47;;
9675;SDS011;4876;42.656;23.292;2023-01-01T01:17:20;216.70;;;123.97;;
9675;SDS011;4876;42.656;23.292;2023-01-01T01:19:47;188.07;;;116.63;;
9675;SDS011;4876;42.656;23.292;2023-01-01T01:22:14;174.10;;;104.40;;
9675;SDS011;4876;42.656;23.292;2023-01-01T01:24:41;153.63;;;88.20;;
9675;SDS011;4876;42.656;23.292;2023-01-01T01:27:07;151.23;;;90.93;;
9675;SDS011;4876;42.656;23.292;2023-01-01T01:29:34;153.20;;;90.47;;
9675;SDS011;4876;42.656;23.292;2023-01-01T01:32:01;166.00;;;99.43;;
9675;SDS011;4876;42.656;23.292;2023-01-01T01:34:29;144.93;;;85.77;;
9675;SDS011;4876;42.656;23.292;2023-01-01T01:36:56;172.20;;;100.10;;
9675;SDS011;4876;42.656;23.292;2023-01-01T01:39:23;176.27;;;106.90;;
9675;SDS011;4876;42.656;23.292;2023-01-01T01:41:50;155.23;;;95.37;;
9675;SDS011;4876;42.656;23.292;2023-01-01T01:47:21;295.00;;;175.47;;
9675;SDS011;4876;42.656;23.292;2023-01-01T01:49:53;202.73;;;117.43;;
9675;SDS011;4876;42.656;23.292;2023-01-01T01:52:25;144.87;;;82.97;;
9675;SDS011;4876;42.656;23.292;2023-01-01T01:54:54;147.93;;;80.83;;
9675;SDS011;4876;42.656;23.292;2023-01-01T01:57:21;217.53;;;118.53;;
9675;SDS011;4876;42.656;23.292;2023-01-01T01:59:49;199.87;;;116.63;;
9675;SDS011;4876;42.656;23.292;2023-01-01T02:02:22;189.87;;;111.20;;
9675;SDS011;4876;42.656;23.292;2023-01-01T02:04:58;155.57;;;93.50;;
9675;SDS011;4876;42.656;23.292;2023-01-01T02:07:26;128.67;;;78.63;;
9675;SDS011;4876;42.656;23.292;2023-01-01T02:09:55;116.73;;;70.20;;
9675;SDS011;4876;42.656;23.292;2023-01-01T02:12:23;133.13;;;75.37;;
9675;SDS011;4876;42.656;23.292;2023-01-01T02:14:50;121.10;;;67.60;;
9675;SDS011;4876;42.656;23.292;2023-01-01T02:17:18;106.57;;;61.07;;
9675;SDS011;4876;42.656;23.292;2023-01-01T02:19:54;85.90;;;52.73;;
9675;SDS011;4876;42.656;23.292;2023-01-01T02:22:50;114.47;;;63.70;;
9675;SDS011;4876;42.656;23.292;2023-01-01T02:25:22;125.70;;;71.27;;
9675;SDS011;4876;42.656;23.292;2023-01-01T02:27:57;143.77;;;82.83;;
9675;SDS011;4876;42.656;23.292;2023-01-01T02:30:32;140.30;;;79.00;;
9675;SDS011;4876;42.656;23.292;2023-01-01T02:33:02;113.23;;;63.47;;
9675;SDS011;4876;42.656;23.292;2023-01-01T02:35:33;92.77;;;50.77;;
9675;SDS011;4876;42.656;23.292;2023-01-01T02:38:07;92.43;;;56.73;;
9675;SDS011;4876;42.656;23.292;2023-01-01T02:40:37;83.37;;;48.33;;
9675;SDS011;4876;42.656;23.292;2023-01-01T02:43:07;81.47;;;45.43;;
9675;SDS011;4876;42.656;23.292;2023-01-01T02:45:36;66.57;;;42.63;;
9675;SDS011;4876;42.656;23.292;2023-01-01T02:48:03;82.73;;;47.67;;
9675;SDS011;4876;42.656;23.292;2023-01-01T02:50:31;82.37;;;50.93;;
9675;SDS011;4876;42.656;23.292;2023-01-01T02:53:11;136.53;;;78.93;;
9675;SDS011;4876;42.656;23.292;2023-01-01T02:55:52;127.77;;;71.73;;
9675;SDS011;4876;42.656;23.292;2023-01-01T02:58:26;116.40;;;69.33;;
9675;SDS011;4876;42.656;23.292;2023-01-01T03:01:22;95.03;;;51.90;;
9675;SDS011;4876;42.656;23.292;2023-01-01T03:03:56;85.47;;;51.43;;
9675;SDS011;4876;42.656;23.292;2023-01-01T03:06:32;82.30;;;48.90;;
9675;SDS011;4876;42.656;23.292;2023-01-01T03:09:07;76.47;;;48.77;;
9675;SDS011;4876;42.656;23.292;2023-01-01T03:11:43;85.40;;;48.43;;
9675;SDS011;4876;42.656;23.292;2023-01-01T03:14:15;109.87;;;63.80;;
9675;SDS011;4876;42.656;23.292;2023-01-01T03:16:48;97.10;;;59.87;;
9675;SDS011;4876;42.656;23.292;2023-01-01T03:19:18;130.90;;;72.03;;
9675;SDS011;4876;42.656;23.292;2023-01-01T03:21:49;121.90;;;64.27;;
9675;SDS011;4876;42.656;23.292;2023-01-01T03:24:20;97.00;;;56.23;;
9675;SDS011;4876;42.656;23.292;2023-01-01T03:26:52;148.63;;;82.10;;
9675;SDS011;4876;42.656;23.292;2023-01-01T03:29:22;115.23;;;65.50;;
9675;SDS011;4876;42.656;23.292;2023-01-01T03:31:55;102.60;;;59.70;;
9675;SDS011;4876;42.656;23.292;2023-01-01T03:34:26;115.57;;;67.07;;
9675;SDS011;4876;42.656;23.292;2023-01-01T03:36:58;102.37;;;59.57;;
9675;SDS011;4876;42.656;23.292;2023-01-01T03:39:29;87.00;;;50.83;;
9675;SDS011;4876;42.656;23.292;2023-01-01T03:42:01;101.63;;;57.67;;
9675;SDS011;4876;42.656;23.292;2023-01-01T03:44:37;124.20;;;72.17;;
9675;SDS011;4876;42.656;23.292;2023-01-01T03:47:11;135.40;;;79.87;;
9675;SDS011;4876;42.656;23.292;2023-01-01T03:49:38;134.77;;;81.33;;
9675;SDS011;4876;42.656;23.292;2023-01-01T03:52:11;144.83;;;86.20;;
9675;SDS011;4876;42.656;23.292;2023-01-01T03:54:48;141.47;;;86.27;;
9675;SDS011;4876;42.656;23.292;2023-01-01T03:57:20;130.93;;;77.63;;
9675;SDS011;4876;42.656;23.292;2023-01-01T03:59:54;127.80;;;74.30;;
9675;SDS011;4876;42.656;23.292;2023-01-01T04:02:29;139.00;;;76.57;;
9675;SDS011;4876;42.656;23.292;2023-01-01T04:05:01;155.83;;;86.77;;
9675;SDS011;4876;42.656;23.292;2023-01-01T04:07:31;168.67;;;90.10;;
9675;SDS011;4876;42.656;23.292;2023-01-01T04:09:59;158.73;;;90.60;;
9675;SDS011;4876;42.656;23.292;2023-01-01T04:12:41;179.50;;;104.80;;
9675;SDS011;4876;42.656;23.292;2023-01-01T04:15:09;159.57;;;94.17;;
9675;SDS011;4876;42.656;23.292;2023-01-01T04:17:37;146.70;;;86.17;;
9675;SDS011;4876;42.656;23.292;2023-01-01T04:20:04;142.43;;;81.53;;
9675;SDS011;4876;42.656;23.292;2023-01-01T04:22:33;141.80;;;78.40;;
9675;SDS011;4876;42.656;23.292;2023-01-01T04:25:00;124.10;;;69.63;;
9675;SDS011;4876;42.656;23.292;2023-01-01T04:27:26;119.40;;;65.33;;
9675;SDS011;4876;42.656;23.292;2023-01-01T04:29:53;117.37;;;70.30;;
9675;SDS011;4876;42.656;23.292;2023-01-01T04:32:20;137.93;;;78.23;;
9675;SDS011;4876;42.656;23.292;2023-01-01T04:34:48;143.90;;;77.17;;
9675;SDS011;4876;42.656;23.292;2023-01-01T04:37:15;126.83;;;74.60;;
9675;SDS011;4876;42.656;23.292;2023-01-01T04:39:42;129.63;;;76.23;;
9675;SDS011;4876;42.656;23.292;2023-01-01T04:42:09;153.10;;;88.10;;
9675;SDS011;4876;42.656;23.292;2023-01-01T04:44:35;136.73;;;80.27;;
9675;SDS011;4876;42.656;23.292;2023-01-01T04:47:02;129.77;;;76.57;;
9675;SDS011;4876;42.656;23.292;2023-01-01T04:49:29;138.90;;;81.63;;
9675;SDS011;4876;42.656;23.292;2023-01-01T04:51:57;81.77;;;46.17;;
9675;SDS011;4876;42.656;23.292;2023-01-01T04:54:24;68.03;;;40.33;;
9675;SDS011;4876;42.656;23.292;2023-01-01T04:56:50;76.27;;;44.03;;
9675;SDS011;4876;42.656;23.292;2023-01-01T04:59:17;76.10;;;41.70;;
9675;SDS011;4876;42.656;23.292;2023-01-01T05:01:44;73.90;;;45.10;;
9675;SDS011;4876;42.656;23.292;2023-01-01T05:04:11;87.20;;;52.63;;
9675;SDS011;4876;42.656;23.292;2023-01-01T05:06:39;99.00;;;55.97;;
9675;SDS011;4876;42.656;23.292;2023-01-01T05:09:09;105.10;;;58.80;;
9675;SDS011;4876;42.656;23.292;2023-01-01T05:11:36;97.17;;;57.93;;
9675;SDS011;4876;42.656;23.292;2023-01-01T05:14:03;146.20;;;82.27;;
9675;SDS011;4876;42.656;23.292;2023-01-01T05:16:31;120.70;;;68.87;;
9675;SDS011;4876;42.656;23.292;2023-01-01T05:18:59;135.93;;;77.43;;
9675;SDS011;4876;42.656;23.292;2023-01-01T05:21:27;181.43;;;102.83;;
9675;SDS011;4876;42.656;23.292;2023-01-01T05:23:56;147.63;;;83.63;;
9675;SDS011;4876;42.656;23.292;2023-01-01T05:26:26;165.90;;;98.27;;
9675;SDS011;4876;42.656;23.292;2023-01-01T05:28:55;164.97;;;91.67;;
9675;SDS011;4876;42.656;23.292;2023-01-01T05:31:23;172.33;;;97.80;;
9675;SDS011;4876;42.656;23.292;2023-01-01T05:33:51;149.50;;;89.40;;
9675;SDS011;4876;42.656;23.292;2023-01-01T05:36:19;151.50;;;81.63;;
9675;SDS011;4876;42.656;23.292;2023-01-01T05:38:48;140.23;;;80.97;;
9675;SDS011;4876;42.656;23.292;2023-01-01T05:41:15;126.83;;;76.70;;
9675;SDS011;4876;42.656;23.292;2023-01-01T05:43:45;130.27;;;73.33;;
9675;SDS011;4876;42.656;23.292;2023-01-01T05:46:12;124.17;;;73.40;;
9675;SDS011;4876;42.656;23.292;2023-01-01T05:48:41;126.27;;;70.87;;
9675;SDS011;4876;42.656;23.292;2023-01-01T05:51:08;107.00;;;61.23;;
9675;SDS011;4876;42.656;23.292;2023-01-01T05:53:36;106.50;;;62.43;;
9675;SDS011;4876;42.656;23.292;2023-01-01T05:56:04;117.73;;;63.07;;
9675;SDS011;4876;42.656;23.292;2023-01-01T05:58:32;157.70;;;92.30;;
9675;SDS011;4876;42.656;23.292;2023-01-01T06:01:05;159.57;;;92.23;;
9675;SDS011;4876;42.656;23.292;2023-01-01T06:03:33;154.20;;;85.23;;
9675;SDS011;4876;42.656;23.292;2023-01-01T06:06:03;132.13;;;79.07;;
9675;SDS011;4876;42.656;23.292;2023-01-01T06:08:31;158.53;;;89.57;;
9675;SDS011;4876;42.656;23.292;2023-01-01T06:10:58;133.60;;;81.37;;
9675;SDS011;4876;42.656;23.292;2023-01-01T06:13:26;135.37;;;74.30;;
9675;SDS011;4876;42.656;23.292;2023-01-01T06:15:53;119.40;;;66.33;;
9675;SDS011;4876;42.656;23.292;2023-01-01T06:18:22;122.30;;;67.10;;
9675;SDS011;4876;42.656;23.292;2023-01-01T06:20:49;133.07;;;74.17;;
9675;SDS011;4876;42.656;23.292;2023-01-01T06:23:16;119.37;;;69.57;;
9675;SDS011;4876;42.656;23.292;2023-01-01T06:25:44;104.43;;;60.77;;
9675;SDS011;4876;42.656;23.292;2023-01-01T06:28:11;132.23;;;71.37;;
9675;SDS011;4876;42.656;23.292;2023-01-01T06:30:37;120.87;;;68.33;;
9675;SDS011;4876;42.656;23.292;2023-01-01T06:33:04;119.93;;;70.93;;
9675;SDS011;4876;42.656;23.292;2023-01-01T06:35:33;119.07;;;67.27;;
9675;SDS011;4876;42.656;23.292;2023-01-01T06:38:00;112.77;;;64.20;;
9675;SDS011;4876;42.656;23.292;2023-01-01T06:40:26;107.30;;;60.80;;
9675;SDS011;4876;42.656;23.292;2023-01-01T06:42:53;103.63;;;59.27;;
9675;SDS011;4876;42.656;23.292;2023-01-01T06:45:20;105.93;;;57.20;;
9675;SDS011;4876;42.656;23.292;2023-01-01T06:47:47;99.80;;;56.30;;
9675;SDS011;4876;42.656;23.292;2023-01-01T06:50:13;100.53;;;56.60;;
9675;SDS011;4876;42.656;23.292;2023-01-01T06:52:42;104.57;;;58.50;;
9675;SDS011;4876;42.656;23.292;2023-01-01T06:55:09;107.40;;;59.20;;
9675;SDS011;4876;42.656;23.292;2023-01-01T06:57:36;106.53;;;60.23;;
9675;SDS011;4876;42.656;23.292;2023-01-01T07:00:03;102.60;;;57.53;;
9675;SDS011;4876;42.656;23.292;2023-01-01T07:02:30;99.30;;;57.37;;
9675;SDS011;4876;42.656;23.292;2023-01-01T07:04:57;100.27;;;59.23;;
9675;SDS011;4876;42.656;23.292;2023-01-01T07:07:24;125.20;;;69.20;;
9675;SDS011;4876;42.656;23.292;2023-01-01T07:09:52;124.57;;;71.47;;
9675;SDS011;4876;42.656;23.292;2023-01-01T07:12:19;124.30;;;67.57;;
9675;SDS011;4876;42.656;23.292;2023-01-01T07:14:45;125.87;;;74.83;;
9675;SDS011;4876;42.656;23.292;2023-01-01T07:17:12;144.90;;;82.87;;
9675;SDS011;4876;42.656;23.292;2023-01-01T07:19:39;135.03;;;79.93;;
9675;SDS011;4876;42.656;23.292;2023-01-01T07:22:07;134.80;;;78.77;;
9675;SDS011;4876;42.656;23.292;2023-01-01T07:24:36;128.37;;;75.03;;
9675;SDS011;4876;42.656;23.292;2023-01-01T07:27:05;145.33;;;83.07;;
9675;SDS011;4876;42.656;23.292;2023-01-01T07:29:31;162.93;;;92.83;;
9675;SDS011;4876;42.656;23.292;2023-01-01T07:31:58;172.87;;;103.13;;
9675;SDS011;4876;42.656;23.292;2023-01-01T07:34:25;159.63;;;94.93;;
9675;SDS011;4876;42.656;23.292;2023-01-01T07:36:52;163.33;;;93.40;;
9675;SDS011;4876;42.656;23.292;2023-01-01T07:39:19;171.20;;;102.67;;
9675;SDS011;4876;42.656;23.292;2023-01-01T07:41:46;166.50;;;100.53;;
9675;SDS011;4876;42.656;23.292;2023-01-01T07:44:14;170.30;;;96.47;;
9675;SDS011;4876;42.656;23.292;2023-01-01T07:46:40;165.23;;;98.83;;
9675;SDS011;4876;42.656;23.292;2023-01-01T07:49:07;170.43;;;95.53;;
9675;SDS011;4876;42.656;23.292;2023-01-01T07:51:34;156.43;;;94.00;;
9675;SDS011;4876;42.656;23.292;2023-01-01T07:54:01;172.23;;;102.53;;
9675;SDS011;4876;42.656;23.292;2023-01-01T07:56:28;187.13;;;111.73;;
9675;SDS011;4876;42.656;23.292;2023-01-01T07:58:54;173.90;;;103.67;;
9675;SDS011;4876;42.656;23.292;2023-01-01T08:01:23;164.53;;;99.03;;
9675;SDS011;4876;42.656;23.292;2023-01-01T08:03:50;159.33;;;99.53;;
9675;SDS011;4876;42.656;23.292;2023-01-01T08:06:18;154.83;;;89.40;;
9675;SDS011;4876;42.656;23.292;2023-01-01T08:08:46;175.60;;;101.03;;
9675;SDS011;4876;42.656;23.292;2023-01-01T08:11:13;174.87;;;107.20;;
9675;SDS011;4876;42.656;23.292;2023-01-01T08:13:40;182.23;;;111.43;;
9675;SDS011;4876;42.656;23.292;2023-01-01T08:16:06;185.67;;;113.40;;
9675;SDS011;4876;42.656;23.292;2023-01-01T08:18:35;183.23;;;113.83;;
9675;SDS011;4876;42.656;23.292;2023-01-01T08:21:02;167.73;;;106.73;;
9675;SDS011;4876;42.656;23.292;2023-01-01T08:23:29;170.97;;;106.67;;
9675;SDS011;4876;42.656;23.292;2023-01-01T08:25:59;176.47;;;102.07;;
9675;SDS011;4876;42.656;23.292;2023-01-01T08:28:27;180.43;;;107.17;;
9675;SDS011;4876;42.656;23.292;2023-01-01T08:30:54;166.67;;;102.63;;
9675;SDS011;4876;42.656;23.292;2023-01-01T08:33:21;160.47;;;97.80;;
9675;SDS011;4876;42.656;23.292;2023-01-01T08:35:50;151.70;;;96.43;;
9675;SDS011;4876;42.656;23.292;2023-01-01T08:38:17;149.73;;;90.17;;
9675;SDS011;4876;42.656;23.292;2023-01-01T08:40:44;150.63;;;89.97;;
9675;SDS011;4876;42.656;23.292;2023-01-01T08:43:10;142.73;;;85.87;;
9675;SDS011;4876;42.656;23.292;2023-01-01T08:45:37;138.63;;;86.50;;
9675;SDS011;4876;42.656;23.292;2023-01-01T08:48:04;139.43;;;86.70;;
9675;SDS011;4876;42.656;23.292;2023-01-01T08:50:31;135.07;;;84.23;;
9675;SDS011;4876;42.656;23.292;2023-01-01T08:52:59;130.77;;;80.70;;
9675;SDS011;4876;42.656;23.292;2023-01-01T08:55:26;126.43;;;76.30;;
9675;SDS011;4876;42.656;23.292;2023-01-01T08:57:53;128.13;;;80.03;;
9675;SDS011;4876;42.656;23.292;2023-01-01T09:00:20;126.37;;;78.67;;
9675;SDS011;4876;42.656;23.292;2023-01-01T09:02:47;136.87;;;82.77;;
9675;SDS011;4876;42.656;23.292;2023-01-01T09:05:14;135.13;;;81.77;;
9675;SDS011;4876;42.656;23.292;2023-01-01T09:07:41;136.23;;;86.13;;
9675;SDS011;4876;42.656;23.292;2023-01-01T09:10:09;146.23;;;91.13;;
9675;SDS011;4876;42.656;23.292;2023-01-01T09:12:35;131.47;;;76.30;;
9675;SDS011;4876;42.656;23.292;2023-01-01T09:15:02;123.50;;;79.57;;
9675;SDS011;4876;42.656;23.292;2023-01-01T09:17:30;122.13;;;80.17;;
9675;SDS011;4876;42.656;23.292;2023-01-01T09:19:57;125.77;;;83.07;;
9675;SDS011;4876;42.656;23.292;2023-01-01T09:22:23;120.33;;;75.73;;
9675;SDS011;4876;42.656;23.292;2023-01-01T09:24:50;114.97;;;74.43;;
9675;SDS011;4876;42.656;23.292;2023-01-01T09:27:18;119.67;;;75.20;;
9675;SDS011;4876;42.656;23.292;2023-01-01T09:29:45;111.43;;;74.10;;
9675;SDS011;4876;42.656;23.292;2023-01-01T09:32:12;117.60;;;73.47;;
9675;SDS011;4876;42.656;23.292;2023-01-01T09:34:38;107.20;;;68.37;;
9675;SDS011;4876;42.656;23.292;2023-01-01T09:37:05;116.40;;;69.80;;
9675;SDS011;4876;42.656;23.292;2023-01-01T09:39:32;111.47;;;70.47;;
9675;SDS011;4876;42.656;23.292;2023-01-01T09:42:21;115.40;;;71.63;;
9675;SDS011;4876;42.656;23.292;2023-01-01T09:45:00;118.37;;;72.83;;
9675;SDS011;4876;42.656;23.292;2023-01-01T09:47:33;104.20;;;65.60;;
9675;SDS011;4876;42.656;23.292;2023-01-01T09:50:04;114.73;;;68.33;;
9675;SDS011;4876;42.656;23.292;2023-01-01T09:52:36;117.80;;;72.40;;
9675;SDS011;4876;42.656;23.292;2023-01-01T09:55:10;115.67;;;73.23;;
9675;SDS011;4876;42.656;23.292;2023-01-01T09:57:45;120.67;;;72.33;;
9675;SDS011;4876;42.656;23.292;2023-01-01T10:00:13;118.00;;;73.60;;
9675;SDS011;4876;42.656;23.292;2023-01-01T10:02:43;113.93;;;74.40;;
9675;SDS011;4876;42.656;23.292;2023-01-01T10:05:29;128.53;;;80.57;;
9675;SDS011;4876;42.656;23.292;2023-01-01T10:08:04;124.03;;;82.17;;
9675;SDS011;4876;42.656;23.292;2023-01-01T10:10:38;120.93;;;79.47;;
9675;SDS011;4876;42.656;23.292;2023-01-01T10:13:11;127.13;;;80.83;;
9675;SDS011;4876;42.656;23.292;2023-01-01T10:15:49;133.80;;;84.17;;
9675;SDS011;4876;42.656;23.292;2023-01-01T10:18:22;133.00;;;86.70;;
9675;SDS011;4876;42.656;23.292;2023-01-01T10:20:54;140.63;;;89.30;;
9675;SDS011;4876;42.656;23.292;2023-01-01T10:23:27;143.83;;;90.40;;
9675;SDS011;4876;42.656;23.292;2023-01-01T10:25:59;135.33;;;90.47;;
9675;SDS011;4876;42.656;23.292;2023-01-01T10:28:34;156.70;;;97.30;;
9675;SDS011;4876;42.656;23.292;2023-01-01T10:31:15;149.20;;;92.57;;
9675;SDS011;4876;42.656;23.292;2023-01-01T10:33:44;148.20;;;95.93;;
9675;SDS011;4876;42.656;23.292;2023-01-01T10:36:12;144.10;;;92.97;;
9675;SDS011;4876;42.656;23.292;2023-01-01T10:38:42;139.87;;;92.27;;
9675;SDS011;4876;42.656;23.292;2023-01-01T10:41:10;137.90;;;89.30;;
9675;SDS011;4876;42.656;23.292;2023-01-01T10:43:41;139.30;;;87.73;;
9675;SDS011;4876;42.656;23.292;2023-01-01T10:46:11;130.17;;;87.90;;
9675;SDS011;4876;42.656;23.292;2023-01-01T10:48:40;135.90;;;89.30;;
9675;SDS011;4876;42.656;23.292;2023-01-01T10:51:29;143.33;;;87.90;;
9675;SDS011;4876;42.656;23.292;2023-01-01T10:53:55;132.87;;;86.53;;
9675;SDS011;4876;42.656;23.292;2023-01-01T10:56:23;130.60;;;84.13;;
9675;SDS011;4876;42.656;23.292;2023-01-01T10:58:54;125.80;;;81.87;;
9675;SDS011;4876;42.656;23.292;2023-01-01T11:01:23;120.50;;;79.43;;
9675;SDS011;4876;42.656;23.292;2023-01-01T11:03:51;118.13;;;79.33;;
9675;SDS011;4876;42.656;23.292;2023-01-01T11:06:23;115.60;;;76.87;;
9675;SDS011;4876;42.656;23.292;2023-01-01T11:08:52;113.63;;;77.37;;
9675;SDS011;4876;42.656;23.292;2023-01-01T11:11:24;110.03;;;74.30;;
9675;SDS011;4876;42.656;23.292;2023-01-01T11:13:55;112.23;;;75.00;;
9675;SDS011;4876;42.656;23.292;2023-01-01T11:16:24;116.33;;;76.67;;
9675;SDS011;4876;42.656;23.292;2023-01-01T11:18:52;105.47;;;70.70;;
9675;SDS011;4876;42.656;23.292;2023-01-01T11:21:27;97.47;;;61.37;;
9675;SDS011;4876;42.656;23.292;2023-01-01T11:24:08;100.20;;;65.07;;
9675;SDS011;4876;42.656;23.292;2023-01-01T11:26:42;103.50;;;65.17;;
9675;SDS011;4876;42.656;23.292;2023-01-01T11:29:17;93.30;;;61.03;;
9675;SDS011;4876;42.656;23.292;2023-01-01T11:31:49;93.23;;;61.07;;
9675;SDS011;4876;42.656;23.292;2023-01-01T11:34:24;100.60;;;61.27;;
9675;SDS011;4876;42.656;23.292;2023-01-01T11:37:05;91.17;;;60.40;;
9675;SDS011;4876;42.656;23.292;2023-01-01T11:39:34;92.43;;;59.43;;
9675;SDS011;4876;42.656;23.292;2023-01-01T11:42:02;89.23;;;56.80;;
9675;SDS011;4876;42.656;23.292;2023-01-01T11:44:34;81.80;;;54.87;;
9675;SDS011;4876;42.656;23.292;2023-01-01T11:47:06;82.60;;;55.50;;
9675;SDS011;4876;42.656;23.292;2023-01-01T11:49:45;76.63;;;50.13;;
9675;SDS011;4876;42.656;23.292;2023-01-01T11:52:25;76.77;;;49.50;;
9675;SDS011;4876;42.656;23.292;2023-01-01T11:54:58;76.97;;;51.80;;
9675;SDS011;4876;42.656;23.292;2023-01-01T11:57:28;68.53;;;47.20;;
9675;SDS011;4876;42.656;23.292;2023-01-01T11:59:59;74.40;;;49.53;;
9675;SDS011;4876;42.656;23.292;2023-01-01T12:02:29;68.67;;;47.90;;
9675;SDS011;4876;42.656;23.292;2023-01-01T12:05:04;66.87;;;46.80;;
9675;SDS011;4876;42.656;23.292;2023-01-01T12:07:38;64.70;;;43.13;;
9675;SDS011;4876;42.656;23.292;2023-01-01T12:10:11;74.20;;;46.30;;
9675;SDS011;4876;42.656;23.292;2023-01-01T12:12:43;62.67;;;44.73;;
9675;SDS011;4876;42.656;23.292;2023-01-01T12:15:17;65.07;;;41.07;;
9675;SDS011;4876;42.656;23.292;2023-01-01T12:17:51;62.40;;;43.23;;
9675;SDS011;4876;42.656;23.292;2023-01-01T12:20:24;65.50;;;44.27;;
9675;SDS011;4876;42.656;23.292;2023-01-01T12:22:53;62.47;;;43.67;;
9675;SDS011;4876;42.656;23.292;2023-01-01T12:25:21;65.90;;;43.63;;
9675;SDS011;4876;42.656;23.292;2023-01-01T12:27:55;66.30;;;41.87;;
9675;SDS011;4876;42.656;23.292;2023-01-01T12:30:30;60.37;;;39.90;;
9675;SDS011;4876;42.656;23.292;2023-01-01T12:33:17;57.43;;;39.60;;
9675;SDS011;4876;42.656;23.292;2023-01-01T12:36:13;58.30;;;38.50;;
9675;SDS011;4876;42.656;23.292;2023-01-01T12:39:02;57.73;;;39.37;;
9675;SDS011;4876;42.656;23.292;2023-01-01T12:41:51;57.43;;;39.63;;
9675;SDS011;4876;42.656;23.292;2023-01-01T12:44:27;58.13;;;39.50;;
9675;SDS011;4876;42.656;23.292;2023-01-01T12:47:03;63.37;;;40.90;;
9675;SDS011;4876;42.656;23.292;2023-01-01T12:49:53;54.67;;;40.27;;
9675;SDS011;4876;42.656;23.292;2023-01-01T12:52:34;61.87;;;41.43;;
9675;SDS011;4876;42.656;23.292;2023-01-01T12:58:22;63.17;;;40.57;;
9675;SDS011;4876;42.656;23.292;2023-01-01T13:00:54;60.67;;;38.80;;
9675;SDS011;4876;42.656;23.292;2023-01-01T13:03:26;59.23;;;40.80;;
9675;SDS011;4876;42.656;23.292;2023-01-01T13:05:56;59.00;;;39.20;;
9675;SDS011;4876;42.656;23.292;2023-01-01T13:08:25;55.43;;;38.83;;
9675;SDS011;4876;42.656;23.292;2023-01-01T13:10:53;53.43;;;38.40;;
9675;SDS011;4876;42.656;23.292;2023-01-01T13:13:22;58.53;;;39.50;;
9675;SDS011;4876;42.656;23.292;2023-01-01T13:15:53;52.63;;;38.13;;
9675;SDS011;4876;42.656;23.292;2023-01-01T13:18:26;57.03;;;37.17;;
9675;SDS011;4876;42.656;23.292;2023-01-01T13:21:05;56.87;;;37.43;;
9675;SDS011;4876;42.656;23.292;2023-01-01T13:23:46;58.90;;;36.20;;
9675;SDS011;4876;42.656;23.292;2023-01-01T13:26:33;52.37;;;36.27;;
9675;SDS011;4876;42.656;23.292;2023-01-01T13:31:58;52.27;;;34.30;;
9675;SDS011;4876;42.656;23.292;2023-01-01T13:34:35;54.37;;;33.57;;
9675;SDS011;4876;42.656;23.292;2023-01-01T13:40:28;52.40;;;35.37;;
9675;SDS011;4876;42.656;23.292;2023-01-01T13:46:02;50.50;;;33.87;;
9675;SDS011;4876;42.656;23.292;2023-01-01T13:48:34;47.03;;;30.67;;
9675;SDS011;4876;42.656;23.292;2023-01-01T13:51:18;52.70;;;31.20;;
9675;SDS011;4876;42.656;23.292;2023-01-01T13:54:08;51.73;;;31.07;;
9675;SDS011;4876;42.656;23.292;2023-01-01T13:56:49;39.53;;;29.27;;
9675;SDS011;4876;42.656;23.292;2023-01-01T14:02:15;52.47;;;28.40;;
9675;SDS011;4876;42.656;23.292;2023-01-01T14:04:48;42.47;;;27.40;;
9675;SDS011;4876;42.656;23.292;2023-01-01T14:07:22;37.17;;;26.77;;
9675;SDS011;4876;42.656;23.292;2023-01-01T14:12:50;45.03;;;23.27;;
9675;SDS011;4876;42.656;23.292;2023-01-01T14:15:23;40.10;;;23.77;;
9675;SDS011;4876;42.656;23.292;2023-01-01T14:17:52;40.53;;;23.37;;
9675;SDS011;4876;42.656;23.292;2023-01-01T14:20:22;43.33;;;23.27;;
9675;SDS011;4876;42.656;23.292;2023-01-01T14:22:54;37.13;;;22.30;;
9675;SDS011;4876;42.656;23.292;2023-01-01T14:25:23;33.70;;;21.27;;
9675;SDS011;4876;42.656;23.292;2023-01-01T14:27:53;32.27;;;20.27;;
9675;SDS011;4876;42.656;23.292;2023-01-01T14:30:22;27.83;;;18.77;;
9675;SDS011;4876;42.656;23.292;2023-01-01T14:32:56;32.40;;;17.73;;
9675;SDS011;4876;42.656;23.292;2023-01-01T14:35:24;34.07;;;21.60;;
9675;SDS011;4876;42.656;23.292;2023-01-01T14:37:51;38.03;;;22.97;;
9675;SDS011;4876;42.656;23.292;2023-01-01T14:40:20;32.10;;;18.47;;
9675;SDS011;4876;42.656;23.292;2023-01-01T14:42:56;30.53;;;16.07;;
9675;SDS011;4876;42.656;23.292;2023-01-01T14:45:27;25.97;;;18.63;;
9675;SDS011;4876;42.656;23.292;2023-01-01T14:47:55;30.40;;;16.93;;
9675;SDS011;4876;42.656;23.292;2023-01-01T14:50:26;26.97;;;16.33;;
9675;SDS011;4876;42.656;23.292;2023-01-01T14:52:57;28.47;;;16.67;;
9675;SDS011;4876;42.656;23.292;2023-01-01T14:55:32;29.53;;;15.10;;
9675;SDS011;4876;42.656;23.292;2023-01-01T14:58:05;22.73;;;13.87;;
9675;SDS011;4876;42.656;23.292;2023-01-01T15:00:37;28.83;;;14.07;;
9675;SDS011;4876;42.656;23.292;2023-01-01T15:03:05;23.53;;;14.07;;